Time;durP1;ratioP1;P1;durP2;ratioP2;P2;SDS_P1;SDS_P2;PMS_P1;PMS_P2;Temp;Humidity;BMP_temperature;BMP_pressure;BME280_temperature;BME280_humidity;BME280_pressure;Samples;Min_cycle;Max_cycle;Signal;HPM_P1;HPM_P2
2022/01/22 00:01:37;;;;;;;10.78;4.10;;;;;;;-2.48;60.05;100556.77;1413601;91;22407;-78
2022/01/22 00:04:05;;;;;;;8.70;3.25;;;;;;;-2.54;60.12;100544.89;1414874;91;21489;-77
2022/01/22 00:06:32;;;;;;;9.73;5.53;;;;;;;-2.59;60.06;100537.75;1413489;89;21493;-78
2022/01/22 00:08:59;;;;;;;11.05;3.95;;;;;;;-2.62;60.10;100532.27;1428682;90;22440;-78
2022/01/22 00:11:34;;;;;;;12.98;3.65;;;;;;;-2.64;60.05;100531.94;1420018;90;21560;-79
2022/01/22 00:16:41;;;;;;;18.02;5.28;;;;;;;-2.70;60.13;100515.31;1429432;90;22551;-81
2022/01/22 00:19:10;;;;;;;13.50;3.83;;;;;;;-2.76;60.09;100515.97;1419709;90;21471;-79
2022/01/22 00:21:37;;;;;;;13.15;4.03;;;;;;;-2.81;59.79;100506.69;1431266;91;21486;-80
2022/01/22 00:24:09;;;;;;;9.63;3.50;;;;;;;-2.87;59.93;100503.89;1412174;91;21708;-78
2022/01/22 00:26:35;;;;;;;11.33;4.65;;;;;;;-2.92;60.09;100495.45;1403545;92;21561;-80
2022/01/22 00:29:03;;;;;;;13.10;6.12;;;;;;;-2.96;60.20;100477.06;1415679;90;22589;-80
2022/01/22 00:31:30;;;;;;;14.53;6.20;;;;;;;-3.00;60.31;100461.23;1421590;90;21515;-79
2022/01/22 00:33:57;;;;;;;10.25;4.90;;;;;;;-3.03;60.52;100461.36;1418010;91;21526;-80
2022/01/22 00:36:28;;;;;;;12.00;3.77;;;;;;;-3.07;60.54;100459.34;1398343;91;22093;-80
2022/01/22 00:38:55;;;;;;;15.25;5.10;;;;;;;-3.08;60.70;100472.34;1427199;91;21552;-80
2022/01/22 00:41:25;;;;;;;10.50;3.75;;;;;;;-3.14;60.83;100471.29;1410510;91;21472;-79
2022/01/22 00:43:53;;;;;;;14.38;5.42;;;;;;;-3.24;60.80;100503.17;1417586;89;23445;-76
2022/01/22 00:46:22;;;;;;;9.50;3.10;;;;;;;-3.35;61.28;100529.45;1423436;88;21459;-77
2022/01/22 00:48:49;;;;;;;8.90;2.85;;;;;;;-3.45;61.49;100542.35;1446762;89;21596;-77
2022/01/22 00:51:17;;;;;;;8.35;3.37;;;;;;;-3.52;61.51;100539.12;1440185;88;21568;-77
2022/01/22 00:53:44;;;;;;;12.37;4.12;;;;;;;-3.62;62.05;100536.48;1417968;91;21435;-77
2022/01/22 00:56:11;;;;;;;14.90;4.92;;;;;;;-3.66;62.07;100538.31;1436536;88;21383;-77
2022/01/22 00:58:38;;;;;;;8.95;3.85;;;;;;;-3.75;62.88;100533.47;1445383;89;21540;-77
2022/01/22 01:01:06;;;;;;;18.17;5.70;;;;;;;-3.85;62.91;100546.35;1445272;88;21471;-77
2022/01/22 01:03:34;;;;;;;7.62;2.70;;;;;;;-3.91;62.74;100546.11;1437312;88;21567;-77
2022/01/22 01:06:04;;;;;;;10.28;4.17;;;;;;;-3.95;62.58;100545.80;1442718;89;21405;-77
2022/01/22 01:08:34;;;;;;;11.33;4.58;;;;;;;-4.03;63.11;100546.96;1430007;90;22346;-78
2022/01/22 01:11:03;;;;;;;10.82;4.20;;;;;;;-4.09;63.28;100550.14;1444823;89;22449;-78
2022/01/22 01:13:37;;;;;;;18.57;4.12;;;;;;;-4.11;63.16;100548.53;1436999;89;21427;-78
2022/01/22 01:16:32;;;;;;;10.48;3.33;;;;;;;-4.11;63.45;100548.53;1436373;91;21541;-78
2022/01/22 01:35:18;;;;;;;9.90;3.85;;;;;;;-3.89;63.59;100521.48;1483194;86;21599;-80
2022/01/22 01:37:46;;;;;;;15.10;4.28;;;;;;;-3.87;63.59;100517.11;1470955;86;22647;-79
2022/01/22 01:40:17;;;;;;;18.07;5.03;;;;;;;-3.84;63.76;100523.91;1465315;86;21996;-79
2022/01/22 01:45:31;;;;;;;12.68;3.72;;;;;;;-3.76;63.59;100526.62;1478143;86;23203;-78
2022/01/22 01:48:07;;;;;;;7.97;3.40;;;;;;;-3.73;63.60;100516.62;1492107;86;22521;-78
2022/01/22 01:50:35;;;;;;;10.95;3.77;;;;;;;-3.70;63.42;100519.09;1455838;87;22361;-78
2022/01/22 01:58:18;;;;;;;11.73;4.00;;;;;;;-3.65;63.57;100510.27;1453442;87;22105;-80
2022/01/22 02:00:46;;;;;;;10.45;4.20;;;;;;;-3.63;63.39;100505.87;1460493;88;22602;-79
2022/01/22 02:03:14;;;;;;;7.65;4.17;;;;;;;-3.64;63.28;100501.60;1457737;87;21443;-80
2022/01/22 02:05:41;;;;;;;10.88;4.42;;;;;;;-3.63;63.28;100499.40;1453231;87;21591;-80
2022/01/22 02:08:10;;;;;;;11.83;3.72;;;;;;;-3.64;63.41;100492.55;1459791;86;21683;-80
2022/01/22 02:10:43;;;;;;;12.55;4.95;;;;;;;-3.66;63.41;100483.98;1454937;87;21496;-80
2022/01/22 02:24:08;;;;;;;11.45;4.35;;;;;;;-3.72;63.81;100463.98;1446162;87;21607;-78
2022/01/22 02:26:36;;;;;;;12.43;4.15;;;;;;;-3.77;63.99;100461.58;1455192;87;22367;-78
2022/01/22 02:29:04;;;;;;;11.63;4.15;;;;;;;-3.75;64.09;100459.77;1462439;88;21437;-78
2022/01/22 02:31:40;;;;;;;10.38;4.97;;;;;;;-3.72;64.24;100460.94;1447483;88;21599;-78
2022/01/22 02:34:18;;;;;;;20.43;4.15;;;;;;;-3.74;64.34;100449.83;1459306;87;22108;-78
2022/01/22 02:36:56;;;;;;;14.78;4.35;;;;;;;-3.77;64.17;100455.12;1456019;88;22375;-79
2022/01/22 02:39:19;;;;;;;11.50;3.98;;;;;;;-3.79;64.29;100453.02;1452376;88;22486;-79
2022/01/22 02:41:47;;;;;;;11.38;5.30;;;;;;;-3.83;64.48;100441.09;1453121;87;21632;-79
2022/01/22 02:44:31;;;;;;;16.25;5.62;;;;;;;-3.89;64.62;100434.85;1450271;87;22420;-79
2022/01/22 02:46:46;;;;;;;12.40;4.85;;;;;;;-3.96;64.58;100437.28;1472008;86;21581;-81
2022/01/22 02:49:13;;;;;;;9.58;4.55;;;;;;;-4.00;65.04;100431.80;1468934;86;22477;-81
2022/01/22 02:51:40;;;;;;;9.75;4.80;;;;;;;-4.04;65.09;100432.83;1471382;86;22136;-81
2022/01/22 02:54:08;;;;;;;9.18;4.20;;;;;;;-4.06;65.04;100441.08;1453000;87;21569;-81
2022/01/22 02:56:35;;;;;;;10.40;5.33;;;;;;;-4.12;65.10;100438.27;1471345;88;21642;-80
2022/01/22 02:59:02;;;;;;;16.65;7.45;;;;;;;-4.19;65.36;100440.23;1445022;89;22545;-80
2022/01/22 03:01:29;;;;;;;15.20;6.35;;;;;;;-4.20;65.30;100433.80;1412964;89;21443;-80
2022/01/22 03:03:57;;;;;;;18.25;6.85;;;;;;;-4.18;65.39;100438.03;1449771;89;21525;-81
2022/01/22 03:06:24;;;;;;;19.30;7.37;;;;;;;-4.15;65.35;100441.80;1453681;89;21590;-81
2022/01/22 03:08:52;;;;;;;27.07;7.95;;;;;;;-4.15;65.63;100437.08;1452134;87;21613;-80
2022/01/22 03:11:28;;;;;;;22.10;8.20;;;;;;;-4.17;65.65;100435.86;1441321;87;22397;-79
2022/01/22 03:17:11;;;;;;;22.25;6.28;;;;;;;-4.04;65.67;100435.41;1445602;88;21644;-79
2022/01/22 03:19:59;;;;;;;20.68;7.72;;;;;;;-4.03;65.52;100447.43;1465987;88;21567;-79
2022/01/22 03:22:15;;;;;;;22.30;8.48;;;;;;;-4.04;65.74;100442.72;1484815;86;21426;-79
2022/01/22 03:27:24;;;;;;;14.58;5.47;;;;;;;-4.02;65.80;100443.97;1478218;86;21480;-79
2022/01/22 03:29:51;;;;;;;14.20;6.42;;;;;;;-3.99;66.01;100440.81;1466261;86;21623;-78
2022/01/22 03:32:19;;;;;;;15.93;5.78;;;;;;;-3.95;65.99;100442.83;1481093;86;21422;-79
2022/01/22 03:34:56;;;;;;;13.60;5.00;;;;;;;-3.92;65.85;100446.59;1494841;86;21494;-78
2022/01/22 03:37:25;;;;;;;9.43;3.45;;;;;;;-3.93;66.79;100442.34;1481463;85;21487;-78
2022/01/22 03:39:55;;;;;;;14.75;5.08;;;;;;;-3.92;66.19;100440.14;1474244;86;22574;-78
2022/01/22 03:42:22;;;;;;;6.97;3.27;;;;;;;-3.91;66.71;100445.72;1475986;86;22379;-78
2022/01/22 03:44:49;;;;;;;7.67;4.03;;;;;;;-3.90;66.71;100431.88;1471534;86;21501;-79
2022/01/22 03:47:16;;;;;;;9.23;4.58;;;;;;;-3.87;66.85;100433.06;1474034;86;21451;-78
2022/01/22 03:49:44;;;;;;;10.85;2.77;;;;;;;-3.90;67.44;100433.17;1473936;86;21449;-78
2022/01/22 03:52:11;;;;;;;10.88;3.75;;;;;;;-3.87;67.22;100435.64;1487749;85;21773;-79
2022/01/22 03:54:39;;;;;;;9.15;3.65;;;;;;;-3.85;67.29;100439.03;1469827;86;21489;-81
2022/01/22 03:57:08;;;;;;;11.12;4.25;;;;;;;-3.81;67.20;100438.45;1457332;86;21427;-81
2022/01/22 03:59:35;;;;;;;8.58;4.47;;;;;;;-3.81;67.14;100435.42;1491960;86;21471;-81
2022/01/22 04:02:35;;;;;;;13.40;4.10;;;;;;;-3.77;67.17;100438.30;1444712;88;21511;-81
2022/01/22 04:04:37;;;;;;;9.28;3.08;;;;;;;-3.75;67.90;100437.77;1421633;89;21478;-81
2022/01/22 04:09:50;;;;;;;11.05;4.15;;;;;;;-3.66;67.25;100440.02;1468967;86;22375;-82
2022/01/22 04:12:24;;;;;;;11.00;4.70;;;;;;;-3.60;67.21;100430.34;1480911;86;21471;-82
2022/01/22 04:14:52;;;;;;;9.95;3.95;;;;;;;-3.52;66.97;100429.61;1481251;85;21449;-81
2022/01/22 04:17:24;;;;;;;10.93;4.15;;;;;;;-3.43;67.18;100433.13;1494015;86;21341;-82
2022/01/22 04:25:21;;;;;;;13.03;3.42;;;;;;;-3.28;66.49;100423.50;1458874;87;21624;-82
2022/01/22 04:27:46;;;;;;;12.88;3.75;;;;;;;-3.24;66.42;100415.16;1484302;86;21470;-82
2022/01/22 04:30:14;;;;;;;8.98;3.83;;;;;;;-3.19;66.33;100408.90;1493038;85;21362;-81
2022/01/22 04:32:41;;;;;;;13.48;4.90;;;;;;;-3.17;66.41;100401.05;1461841;87;21458;-81
2022/01/22 04:35:11;;;;;;;12.78;4.00;;;;;;;-3.18;66.13;100404.56;1494747;86;21531;-83
2022/01/22 04:37:39;;;;;;;12.50;4.25;;;;;;;-3.21;66.24;100404.69;1489475;86;21362;-83
2022/01/22 04:40:08;;;;;;;10.05;3.40;;;;;;;-3.22;66.47;100415.95;1448575;88;22375;-83
2022/01/22 04:42:37;;;;;;;11.03;4.12;;;;;;;-3.23;66.70;100395.67;1466915;87;21392;-82
2022/01/22 04:45:15;;;;;;;11.28;3.75;;;;;;;-3.29;67.19;100404.97;1462384;88;21665;-83
2022/01/22 04:55:28;;;;;;;10.93;2.83;;;;;;;-3.43;66.70;100401.62;1451655;88;21561;-82
2022/01/22 04:57:55;;;;;;;12.15;3.85;;;;;;;-3.48;66.87;100397.10;1495804;86;21406;-82
2022/01/22 05:00:23;;;;;;;12.63;3.90;;;;;;;-3.49;66.84;100412.22;1480580;85;21451;-83
2022/01/22 05:02:51;;;;;;;20.08;3.47;;;;;;;-3.51;66.87;100406.70;1479664;85;21377;-82
2022/01/22 05:05:18;;;;;;;9.60;3.62;;;;;;;-3.53;66.85;100400.77;1482297;86;22301;-83
2022/01/22 05:07:45;;;;;;;12.73;3.62;;;;;;;-3.55;66.80;100393.51;1486059;86;21393;-83
2022/01/22 05:10:13;;;;;;;8.03;4.08;;;;;;;-3.61;66.79;100402.80;1488862;86;21442;-83
2022/01/22 05:12:40;;;;;;;10.58;3.65;;;;;;;-3.72;67.60;100405.78;1445577;88;21451;-82
2022/01/22 05:15:08;;;;;;;7.05;4.25;;;;;;;-3.80;67.68;100411.23;1471198;88;21562;-82
2022/01/22 05:17:38;;;;;;;9.00;3.50;;;;;;;-3.86;67.50;100408.88;1462172;87;21576;-81
2022/01/22 05:20:15;;;;;;;7.40;3.62;;;;;;;-3.89;68.29;100407.70;1466805;86;22485;-81
2022/01/22 05:25:31;;;;;;;8.63;3.72;;;;;;;-3.95;67.65;100413.09;1473867;86;21739;-81
2022/01/22 05:38:34;;;;;;;13.08;4.70;;;;;;;-4.33;69.10;100425.65;1456554;85;21429;-83
2022/01/22 05:41:02;;;;;;;10.50;3.92;;;;;;;-4.47;68.22;100426.58;1453852;85;21568;-82
2022/01/22 05:43:29;;;;;;;7.60;4.33;;;;;;;-4.56;68.43;100427.28;1468736;86;21494;-83
2022/01/22 05:45:56;;;;;;;9.58;3.95;;;;;;;-4.65;68.57;100429.34;1463869;86;22234;-82
2022/01/22 05:48:23;;;;;;;15.15;4.62;;;;;;;-4.71;68.48;100439.42;1449719;87;21355;-83
2022/01/22 05:50:58;;;;;;;12.43;5.03;;;;;;;-4.79;68.52;100438.83;1471426;86;21613;-83
2022/01/22 06:01:22;;;;;;;27.10;10.80;;;;;;;-5.09;69.85;100454.83;1467720;87;22492;-81
2022/01/22 06:03:49;;;;;;;36.63;14.13;;;;;;;-5.16;69.33;100459.80;1459835;86;21462;-82
2022/01/22 06:06:16;;;;;;;20.77;8.70;;;;;;;-5.21;69.64;100458.64;1447656;88;21511;-81
2022/01/22 06:08:52;;;;;;;19.40;8.53;;;;;;;-5.25;69.43;100466.09;1436302;88;21480;-84
2022/01/22 06:11:24;;;;;;;36.00;15.38;;;;;;;-5.26;69.90;100473.44;1448121;88;21467;-85
2022/01/22 06:13:52;;;;;;;28.40;11.70;;;;;;;-5.23;69.96;100474.64;1448562;88;22498;-84
2022/01/22 06:16:24;;;;;;;70.42;29.50;;;;;;;-5.25;70.30;100475.12;1446114;88;21740;-83
2022/01/22 06:18:52;;;;;;;71.28;31.52;;;;;;;-5.29;70.29;100473.09;1438163;88;21467;-84
2022/01/22 06:21:19;;;;;;;57.27;22.60;;;;;;;-5.29;70.21;100483.85;1441722;87;21636;-83
2022/01/22 06:23:46;;;;;;;35.63;15.98;;;;;;;-5.36;72.15;100488.78;1450458;87;22317;-82
2022/01/22 06:26:15;;;;;;;39.63;19.05;;;;;;;-5.43;72.24;100497.61;1467078;87;21402;-86
2022/01/22 06:28:43;;;;;;;33.88;15.05;;;;;;;-5.48;71.67;100501.59;1470520;87;21597;-86
2022/01/22 06:31:11;;;;;;;38.08;15.43;;;;;;;-5.52;72.53;100513.74;1460827;87;21681;-86
2022/01/22 06:33:39;;;;;;;44.65;17.10;;;;;;;-5.56;71.38;100517.28;1451488;87;21467;-85
2022/01/22 06:36:06;;;;;;;38.50;13.20;;;;;;;-5.57;71.29;100516.89;1440488;88;21471;-83
2022/01/22 06:38:34;;;;;;;30.23;12.82;;;;;;;-5.60;72.58;100515.69;1463256;86;21427;-83
2022/01/22 06:43:47;;;;;;;27.02;13.65;;;;;;;-5.60;72.18;100513.56;1437870;88;23337;-84
2022/01/22 06:46:14;;;;;;;36.17;14.00;;;;;;;-5.59;72.11;100510.08;1447365;86;21613;-83
2022/01/22 06:48:41;;;;;;;34.63;13.60;;;;;;;-5.56;71.95;100516.44;1462754;86;21467;-81
2022/01/22 06:51:09;;;;;;;32.33;12.93;;;;;;;-5.53;71.70;100519.77;1456891;87;22316;-81
2022/01/22 06:53:40;;;;;;;28.67;12.33;;;;;;;-5.48;71.65;100519.20;1480611;87;21412;-80
2022/01/22 06:56:06;;;;;;;45.52;14.50;;;;;;;-5.42;71.58;100516.89;1460384;87;22353;-80
2022/01/22 06:58:33;;;;;;;35.05;14.83;;;;;;;-5.37;72.05;100521.48;1474497;87;21494;-80
2022/01/22 07:01:00;;;;;;;35.55;16.45;;;;;;;-5.33;71.70;100520.48;1486512;86;21650;-81
2022/01/22 07:03:27;;;;;;;43.68;16.37;;;;;;;-5.26;71.60;100525.05;1475813;86;21519;-81
2022/01/22 07:05:55;;;;;;;34.43;14.33;;;;;;;-5.13;71.65;100517.31;1470798;86;21452;-81
2022/01/22 07:08:22;;;;;;;34.40;14.55;;;;;;;-4.96;71.63;100526.30;1476590;86;21407;-81
2022/01/22 07:10:49;;;;;;;46.48;21.07;;;;;;;-4.85;71.45;100521.65;1488974;86;22589;-81
2022/01/22 07:13:16;;;;;;;44.53;21.35;;;;;;;-4.73;71.44;100523.84;1471131;86;21496;-81
2022/01/22 07:15:44;;;;;;;38.55;19.77;;;;;;;-4.57;71.29;100527.63;1450484;87;21443;-80
2022/01/22 07:18:13;;;;;;;36.08;17.07;;;;;;;-4.42;71.26;100530.61;1483859;85;21540;-80
2022/01/22 07:20:43;;;;;;;35.03;19.55;;;;;;;-4.27;71.14;100530.55;1478626;86;21855;-81
2022/01/22 07:25:57;;;;;;;35.60;18.98;;;;;;;-4.00;70.81;100531.34;1478987;86;21397;-79
2022/01/22 07:28:24;;;;;;;41.77;20.35;;;;;;;-3.80;70.73;100534.08;1486893;86;21434;-79
2022/01/22 07:30:52;;;;;;;62.93;27.02;;;;;;;-3.64;70.68;100531.81;1501922;86;21707;-81
2022/01/22 07:33:20;;;;;;;63.68;30.40;;;;;;;-3.48;70.52;100530.79;1465178;86;21466;-84
2022/01/22 07:35:48;;;;;;;51.68;26.17;;;;;;;-3.35;70.25;100530.74;1474821;86;22412;-82
2022/01/22 07:41:47;;;;;;;62.08;22.37;;;;;;;-3.25;69.45;100521.75;1441166;87;21594;-83
2022/01/22 07:44:14;;;;;;;81.63;31.68;;;;;;;-3.16;68.93;100525.73;1429838;88;21415;-82
2022/01/22 07:46:41;;;;;;;61.92;26.95;;;;;;;-3.12;68.86;100520.81;1424262;88;21592;-84
2022/01/22 07:49:08;;;;;;;97.35;38.05;;;;;;;-3.06;68.98;100517.98;1451302;87;21494;-81
2022/01/22 07:51:36;;;;;;;72.85;27.05;;;;;;;-2.91;69.36;100520.44;1457822;87;21510;-82
2022/01/22 07:54:03;;;;;;;44.80;18.25;;;;;;;-2.78;68.74;100528.13;1450194;87;21591;-81
2022/01/22 07:56:30;;;;;;;38.85;17.27;;;;;;;-2.69;69.50;100533.40;1469533;86;21925;-82
2022/01/22 07:58:59;;;;;;;36.98;13.43;;;;;;;-2.57;67.52;100538.54;1466771;87;22455;-82
2022/01/22 08:01:35;;;;;;;29.87;13.28;;;;;;;-2.51;66.92;100536.99;1452670;87;21408;-82
2022/01/22 08:04:04;;;;;;;28.07;12.13;;;;;;;-2.33;67.37;100532.37;1478561;86;21452;-83
2022/01/22 08:06:32;;;;;;;19.98;9.90;;;;;;;-2.06;67.92;100534.26;1475147;86;21524;-84
2022/01/22 08:08:59;;;;;;;17.98;8.55;;;;;;;-1.79;68.10;100531.84;1470308;86;22522;-84
2022/01/22 08:11:26;;;;;;;15.13;7.58;;;;;;;-1.61;67.83;100526.70;1468663;85;21437;-84
2022/01/22 08:13:54;;;;;;;9.63;4.15;;;;;;;-1.44;67.17;100522.50;1459019;87;21370;-84
2022/01/22 08:16:21;;;;;;;13.55;5.20;;;;;;;-1.36;66.35;100522.54;1455800;87;22279;-84
2022/01/22 08:18:49;;;;;;;20.35;8.58;;;;;;;-1.30;66.06;100521.87;1457681;87;21415;-83
2022/01/22 08:21:16;;;;;;;35.13;17.65;;;;;;;-1.20;65.93;100525.76;1448722;88;21562;-84
2022/01/22 08:23:43;;;;;;;51.70;24.65;;;;;;;-1.06;65.71;100525.96;1431790;89;21621;-84
2022/01/22 08:26:16;;;;;;;56.63;31.95;;;;;;;-1.03;64.86;100527.12;1453863;87;22449;-84
2022/01/22 08:36:51;;;;;;;45.33;23.92;;;;;;;-1.03;63.75;100532.78;1444983;87;21518;-83
2022/01/22 08:39:18;;;;;;;52.38;21.05;;;;;;;-0.88;64.03;100532.52;1458391;87;21730;-82
2022/01/22 08:41:46;;;;;;;52.40;23.00;;;;;;;-0.79;63.63;100536.81;1470846;87;22250;-83
2022/01/22 08:44:14;;;;;;;49.45;22.87;;;;;;;-0.82;62.01;100540.85;1467748;88;21363;-82
2022/01/22 08:46:42;;;;;;;53.55;25.68;;;;;;;-0.83;62.52;100546.98;1441161;88;21503;-83
2022/01/22 08:49:09;;;;;;;88.22;31.37;;;;;;;-0.90;61.60;100546.86;1454051;87;22478;-83
2022/01/22 08:51:40;;;;;;;109.60;42.73;;;;;;;-0.86;62.50;100554.05;1438138;88;21459;-83
2022/01/22 08:54:10;;;;;;;109.63;45.63;;;;;;;-0.79;62.46;100553.70;1452962;87;22336;-82
2022/01/22 08:56:39;;;;;;;36.58;19.37;;;;;;;-0.60;62.31;100558.88;1443387;86;21884;-82
2022/01/22 08:59:08;;;;;;;34.55;14.15;;;;;;;-0.44;61.70;100562.03;1463718;86;22130;-82
2022/01/22 09:01:39;;;;;;;23.47;10.20;;;;;;;-0.38;60.82;100556.07;1462590;87;21552;-83
2022/01/22 09:04:06;;;;;;;32.08;12.43;;;;;;;-0.30;61.25;100554.41;1462508;87;21865;-83
2022/01/22 09:06:34;;;;;;;41.43;17.83;;;;;;;-0.26;60.45;100559.39;1442701;88;21399;-82
2022/01/22 09:09:09;;;;;;;30.40;14.47;;;;;;;-0.34;59.24;100559.39;1457039;87;21821;-83
2022/01/22 09:11:34;;;;;;;21.57;9.90;;;;;;;-0.34;60.74;100565.89;1459128;86;24067;-83
2022/01/22 09:14:03;;;;;;;24.63;9.30;;;;;;;-0.23;61.00;100559.70;1465461;86;21679;-83
2022/01/22 09:16:30;;;;;;;35.87;12.73;;;;;;;-0.09;59.79;100563.73;1477962;86;22225;-82
2022/01/22 09:19:05;;;;;;;45.60;14.83;;;;;;;0.01;59.05;100565.91;1480008;86;24007;-84
2022/01/22 09:21:27;;;;;;;38.77;14.73;;;;;;;0.09;58.63;100561.16;1486628;85;22607;-82
2022/01/22 09:23:54;;;;;;;42.53;14.90;;;;;;;0.17;59.00;100555.95;1472695;85;21951;-83
2022/01/22 09:26:21;;;;;;;12.97;4.97;;;;;;;0.15;58.15;100556.94;1465703;86;21701;-83
2022/01/22 09:28:48;;;;;;;21.43;8.13;;;;;;;0.22;58.08;100567.41;1456355;87;22586;-83
2022/01/22 09:31:16;;;;;;;8.90;4.30;;;;;;;0.37;58.47;100566.61;1472669;86;21702;-82
2022/01/22 09:33:44;;;;;;;15.20;5.27;;;;;;;0.47;57.49;100572.67;1467590;86;22575;-83
2022/01/22 09:36:11;;;;;;;19.90;5.03;;;;;;;0.56;56.42;100577.40;1452449;87;21664;-83
2022/01/22 09:38:38;;;;;;;7.03;3.67;;;;;;;0.66;57.67;100583.79;1439517;86;21860;-83
2022/01/22 09:41:05;;;;;;;10.67;4.67;;;;;;;0.96;57.34;100587.85;1454949;86;21550;-82
2022/01/22 09:43:34;;;;;;;10.20;4.03;;;;;;;1.37;58.37;100578.70;1479829;87;21572;-82
2022/01/22 09:46:01;;;;;;;9.83;3.50;;;;;;;2.26;55.78;100579.19;1460650;88;21977;-83
2022/01/22 09:48:28;;;;;;;5.93;2.93;;;;;;;2.51;54.25;100579.52;1472028;87;21817;-82
2022/01/22 09:50:55;;;;;;;4.03;2.30;;;;;;;2.51;54.25;100579.52;1470588;87;22391;-85
2022/01/22 09:53:22;;;;;;;7.33;2.43;;;;;;;2.64;54.65;100572.13;1468992;87;23372;-86
2022/01/22 09:55:51;;;;;;;8.30;3.50;;;;;;;2.80;49.35;100575.14;1470593;88;22137;-86
2022/01/22 09:58:18;;;;;;;6.97;3.47;;;;;;;3.53;51.11;100573.09;1462145;88;23289;-86
2022/01/22 10:00:45;;;;;;;10.17;4.10;;;;;;;4.25;48.76;100564.89;1468143;88;21400;-85
2022/01/22 10:03:19;;;;;;;5.13;2.90;;;;;;;4.72;48.57;100572.14;1462477;87;21665;-85
2022/01/22 10:05:47;;;;;;;6.27;2.93;;;;;;;5.32;49.20;100571.85;1457582;87;22128;-85
2022/01/22 10:08:24;;;;;;;6.67;3.07;;;;;;;5.52;44.05;100560.36;1467279;87;23384;-86
2022/01/22 10:10:52;;;;;;;11.17;3.63;;;;;;;5.80;45.96;100553.92;1443748;88;21485;-84
2022/01/22 10:13:48;;;;;;;6.10;3.57;;;;;;;6.35;46.71;100551.59;1494963;88;21508;-85
2022/01/22 10:16:26;;;;;;;7.03;2.93;;;;;;;6.47;41.02;100550.64;1462891;87;21405;-85
2022/01/22 10:19:13;;;;;;;5.67;2.57;;;;;;;6.65;43.68;100548.41;1425648;87;21481;-85
2022/01/22 10:21:58;;;;;;;4.83;3.00;;;;;;;5.87;39.21;100549.91;1443457;87;21567;-84
2022/01/22 10:24:39;;;;;;;8.60;5.37;;;;;;;6.35;44.24;100542.39;1441285;87;21533;-84
2022/01/22 10:30:17;;;;;;;7.47;4.03;;;;;;;6.14;41.19;100554.91;1480104;87;22354;-84
2022/01/22 10:33:45;;;;;;;11.40;6.00;;;;;;;5.28;41.59;100555.95;1413078;88;21348;-84
2022/01/22 10:35:27;;;;;;;8.17;4.60;;;;;;;5.26;43.90;100550.44;1431039;88;21622;-83
2022/01/22 10:38:01;;;;;;;6.67;4.10;;;;;;;5.30;43.21;100554.06;1438632;87;21519;-83
2022/01/22 10:40:32;;;;;;;8.00;4.10;;;;;;;5.25;42.84;100554.86;1413402;88;22709;-82
2022/01/22 10:43:31;;;;;;;7.30;3.67;;;;;;;5.18;40.98;100556.26;1405795;88;21733;-82
2022/01/22 10:49:01;;;;;;;4.13;2.40;;;;;;;3.59;43.35;100563.54;1426145;87;22306;-84
2022/01/22 10:51:30;;;;;;;5.47;3.23;;;;;;;3.52;44.04;100560.97;1382577;90;21406;-82
2022/01/22 10:54:03;;;;;;;2.67;1.50;;;;;;;3.75;43.86;100565.18;1359802;90;22399;-84
2022/01/22 10:56:32;;;;;;;4.37;1.63;;;;;;;3.71;41.00;100566.30;1388006;89;21351;-82
2022/01/22 10:59:06;;;;;;;2.87;1.87;;;;;;;3.37;40.77;100558.04;1401103;88;21312;-83
2022/01/22 11:02:02;;;;;;;2.47;1.40;;;;;;;2.60;41.38;100561.50;1419356;89;21312;-83
2022/01/22 11:04:40;;;;;;;2.40;1.13;;;;;;;2.67;43.10;100564.10;1448930;88;23632;-83
2022/01/22 11:07:12;;;;;;;4.43;2.07;;;;;;;2.53;43.12;100561.48;1474085;86;23290;-84
2022/01/22 11:09:39;;;;;;;6.00;2.80;;;;;;;2.18;43.44;100563.13;1463629;86;22472;-85
2022/01/22 11:12:08;;;;;;;3.73;1.80;;;;;;;1.74;44.49;100563.95;1406015;86;21548;-83
2022/01/22 11:14:37;;;;;;;4.93;1.87;;;;;;;1.60;44.36;100558.68;1406408;86;21333;-83
2022/01/22 11:17:07;;;;;;;3.37;1.53;;;;;;;1.68;45.04;100555.17;1417883;87;22379;-83
2022/01/22 11:19:37;;;;;;;3.37;1.60;;;;;;;1.26;44.29;100554.05;1418820;86;22108;-84
2022/01/22 11:22:15;;;;;;;6.45;1.72;;;;;;;1.37;45.92;100557.83;1433152;87;22097;-85
2022/01/22 11:24:46;;;;;;;8.67;1.33;;;;;;;1.44;45.50;100565.67;1398008;85;22198;-83
2022/01/22 11:27:17;;;;;;;3.45;1.90;;;;;;;1.42;44.76;100564.95;1408652;87;21856;-84
2022/01/22 11:29:59;;;;;;;3.53;1.50;;;;;;;1.49;45.02;100554.53;1436179;87;21495;-85
2022/01/22 11:32:30;;;;;;;3.93;2.10;;;;;;;1.55;45.12;100546.36;1420299;87;21420;-83
2022/01/22 11:35:01;;;;;;;5.63;1.80;;;;;;;1.55;45.12;100546.36;1464605;88;21884;-86
2022/01/22 11:37:51;;;;;;;3.80;1.82;;;;;;;1.57;44.14;100549.26;1483658;87;22322;-85
2022/01/22 11:40:26;;;;;;;4.30;2.20;;;;;;;1.64;44.11;100561.95;1429586;87;21576;-82
2022/01/22 11:43:10;;;;;;;4.70;2.23;;;;;;;1.88;44.23;100554.03;1436890;87;22115;-84
2022/01/22 11:45:51;;;;;;;3.80;2.07;;;;;;;1.96;42.58;100557.05;1408321;87;22114;-86
2022/01/22 11:48:26;;;;;;;8.43;2.40;;;;;;;2.52;43.41;100561.12;1459006;86;21492;-83
2022/01/22 11:51:17;;;;;;;7.50;2.77;;;;;;;2.78;42.78;100560.84;1412154;86;22391;-85
2022/01/22 11:53:56;;;;;;;3.02;1.37;;;;;;;3.21;42.19;100552.92;1425624;87;21319;-85
2022/01/22 11:56:26;;;;;;;5.47;2.20;;;;;;;3.78;41.18;100549.27;1470873;86;21444;-81
2022/01/22 11:59:04;;;;;;;5.15;2.80;;;;;;;3.82;40.70;100546.80;1466469;86;21525;-83
2022/01/22 12:01:56;;;;;;;4.47;2.27;;;;;;;4.04;40.56;100553.61;1445984;86;22424;-81
2022/01/22 12:04:26;;;;;;;4.03;2.27;;;;;;;4.28;39.90;100555.51;1450059;88;21458;-82
2022/01/22 12:07:08;;;;;;;2.87;1.90;;;;;;;3.91;39.46;100570.23;1456832;87;21554;-81
2022/01/22 12:10:04;;;;;;;4.43;2.00;;;;;;;3.71;38.72;100564.55;1461153;87;21480;-81
2022/01/22 12:15:44;;;;;;;4.53;2.57;;;;;;;4.11;38.17;100558.44;1448856;88;21438;-82
2022/01/22 12:18:16;;;;;;;7.30;2.33;;;;;;;4.20;38.76;100548.19;1468762;88;22494;-80
2022/01/22 12:23:40;;;;;;;5.87;3.13;;;;;;;3.24;40.07;100559.27;1464329;87;21393;-80
2022/01/22 12:26:07;;;;;;;3.40;1.63;;;;;;;2.47;41.11;100561.86;1470697;86;22419;-79
2022/01/22 12:28:39;;;;;;;7.43;3.17;;;;;;;2.49;42.01;100565.23;1482108;86;21383;-81
2022/01/22 12:31:19;;;;;;;6.77;3.93;;;;;;;2.44;42.98;100560.73;1455327;87;21443;-81
2022/01/22 12:33:53;;;;;;;6.70;2.70;;;;;;;2.22;44.13;100563.81;1405287;87;21348;-81
2022/01/22 12:36:30;;;;;;;5.80;1.87;;;;;;;1.93;44.24;100561.61;1432974;87;21459;-80
2022/01/22 12:39:17;;;;;;;4.60;2.33;;;;;;;1.74;44.58;100570.95;1486248;86;22202;-80
2022/01/22 12:44:27;;;;;;;7.63;2.93;;;;;;;1.49;46.74;100580.14;1437448;88;21496;-81
2022/01/22 12:46:49;;;;;;;4.63;1.77;;;;;;;1.52;46.04;100577.83;1441285;89;22300;-81
2022/01/22 12:49:17;;;;;;;7.00;3.10;;;;;;;1.52;46.04;100577.83;1429173;88;22809;-78
2022/01/22 12:51:45;;;;;;;5.93;3.30;;;;;;;1.77;58.01;100582.05;1460278;87;21732;-77
2022/01/22 12:54:12;;;;;;;6.13;2.50;;;;;;;2.05;47.85;100588.30;1455051;88;22054;-78
2022/01/22 12:56:51;;;;;;;8.27;2.40;;;;;;;2.26;50.23;100591.41;1443050;89;21854;-77
2022/01/22 12:59:18;;;;;;;8.57;3.13;;;;;;;2.30;49.19;100591.59;1451077;89;22032;-77
2022/01/22 13:01:51;;;;;;;8.30;3.87;;;;;;;2.52;49.17;100588.55;1461689;86;21919;-79
2022/01/22 13:04:16;;;;;;;6.57;3.43;;;;;;;1.93;45.76;100596.37;1452981;86;22136;-80
2022/01/22 13:06:49;;;;;;;6.43;2.93;;;;;;;1.93;45.76;100596.37;1471287;86;21942;-80
2022/01/22 13:09:16;;;;;;;5.90;2.67;;;;;;;1.69;46.45;100599.90;1434841;88;21731;-79
2022/01/22 13:11:52;;;;;;;5.77;3.10;;;;;;;1.71;47.35;100601.97;1406591;89;21679;-80
2022/01/22 13:14:29;;;;;;;7.73;2.47;;;;;;;1.71;47.35;100601.97;1420139;88;21721;-80
2022/01/22 13:16:56;;;;;;;5.97;2.07;;;;;;;1.66;46.12;100600.55;1493551;86;21714;-79
2022/01/22 13:19:26;;;;;;;2.87;1.33;;;;;;;1.39;46.06;100603.77;1434270;89;22714;-79
2022/01/22 13:21:59;;;;;;;4.50;2.23;;;;;;;1.28;46.43;100612.17;1403864;89;21681;-80
2022/01/22 13:24:29;;;;;;;2.60;1.50;;;;;;;1.13;47.35;100613.85;1417807;89;21704;-80
2022/01/22 13:27:11;;;;;;;3.98;1.85;;;;;;;1.08;47.67;100622.38;1435802;87;21589;-80
2022/01/22 13:29:52;;;;;;;3.47;1.80;;;;;;;0.97;47.73;100629.09;1421739;87;21319;-79